createdAt,value
2019-05-29T00:02:01.809Z,5.57
2019-05-29T00:07:07.829Z,5.63
2019-05-29T00:12:19.210Z,5.97
2019-05-29T00:17:19.809Z,2.80
2019-05-29T00:22:24.807Z,2.40
2019-05-29T00:27:29.902Z,7.95
2019-05-29T00:32:35.007Z,7.13
2019-05-29T00:37:40.002Z,5.50
2019-05-29T00:42:45.009Z,7.90
2019-05-29T00:47:50.191Z,5.20
2019-05-29T00:52:55.410Z,6.27
2019-05-29T00:58:00.489Z,7.17
2019-05-29T01:03:05.762Z,6.17
2019-05-29T01:08:12.468Z,9.17
2019-05-29T01:13:19.142Z,7.83
2019-05-29T01:18:24.289Z,11.93
2019-05-29T01:23:29.369Z,7.87
2019-05-29T01:28:34.422Z,10.27
2019-05-29T01:33:39.539Z,8.30
2019-05-29T01:38:44.623Z,4.90
2019-05-29T01:43:49.805Z,7.77
2019-05-29T01:48:54.870Z,9.30
2019-05-29T01:54:00.154Z,5.43
2019-05-29T01:59:05.471Z,11.13
2019-05-29T02:04:10.762Z,7.77
2019-05-29T02:09:16.530Z,7.50
2019-05-29T02:14:22.741Z,4.87
2019-05-29T02:19:28.267Z,5.37
2019-05-29T02:24:33.502Z,4.12
2019-05-29T02:29:38.930Z,6.27
2019-05-29T02:34:44.103Z,4.40
2019-05-29T02:39:49.663Z,4.97
2019-05-29T02:44:55.203Z,5.33
2019-05-29T02:50:00.212Z,4.40
2019-05-29T02:55:05.711Z,5.57
2019-05-29T03:00:11.551Z,3.23
2019-05-29T03:05:16.537Z,2.73
2019-05-29T03:10:22.558Z,2.80
2019-05-29T03:15:27.494Z,3.00
2019-05-29T03:20:32.531Z,1.60
2019-05-29T03:25:37.343Z,3.17
2019-05-29T03:30:46.085Z,13.17
2019-05-29T03:35:49.157Z,2.87
2019-05-29T03:40:53.964Z,3.40
2019-05-29T03:45:58.969Z,4.83
2019-05-29T03:51:03.886Z,4.47
2019-05-29T03:56:08.871Z,4.97
2019-05-29T04:01:13.609Z,8.37
2019-05-29T04:06:18.465Z,5.03
2019-05-29T04:11:23.311Z,3.17
2019-05-29T04:16:29.569Z,1.70
2019-05-29T04:21:38.673Z,2.07
2019-05-29T04:26:44.872Z,2.63
2019-05-29T04:31:50.030Z,2.20
2019-05-29T04:36:54.817Z,2.93
2019-05-29T04:41:59.691Z,4.47
2019-05-29T04:47:11.047Z,4.87
2019-05-29T04:52:11.382Z,5.87
2019-05-29T04:57:16.512Z,16.20
2019-05-29T05:02:21.392Z,61.73
2019-05-29T05:07:26.222Z,107.47
2019-05-29T05:12:31.548Z,117.37
2019-05-29T05:17:36.517Z,82.65
2019-05-29T05:22:41.410Z,216.43
2019-05-29T05:27:46.301Z,120.33
2019-05-29T05:32:51.171Z,15.93
2019-05-29T05:37:55.910Z,64.37
2019-05-29T05:43:00.826Z,95.47
2019-05-29T05:48:05.770Z,172.70
2019-05-29T05:53:10.589Z,161.43
2019-05-29T05:58:15.410Z,242.57
2019-05-29T06:03:20.870Z,101.70
2019-05-29T06:08:25.669Z,263.95
2019-05-29T06:13:30.512Z,313.30
2019-05-29T06:18:36.448Z,307.30
2019-05-29T06:23:41.686Z,310.10
2019-05-29T06:28:46.875Z,333.47
2019-05-29T06:33:51.850Z,295.57
2019-05-29T06:38:57.089Z,300.33
2019-05-29T06:44:01.970Z,243.80
2019-05-29T06:49:06.870Z,489.60
2019-05-29T06:54:11.942Z,398.37
2019-05-29T06:59:16.801Z,391.97
2019-05-29T07:04:22.042Z,313.93
2019-05-29T07:09:26.951Z,376.73
2019-05-29T07:14:31.950Z,319.25
2019-05-29T07:19:48.946Z,226.87
2019-05-29T07:24:44.997Z,363.07
2019-05-29T07:29:50.371Z,385.40
2019-05-29T07:35:03.118Z,360.73
2019-05-29T07:40:01.949Z,366.67
2019-05-29T07:45:07.350Z,416.60
2019-05-29T07:50:13.055Z,269.33
2019-05-29T07:55:18.229Z,309.87
2019-05-29T08:00:34.735Z,439.40
2019-05-29T08:05:30.310Z,416.90
2019-05-29T08:10:35.153Z,446.07
2019-05-29T08:15:55.019Z,426.45
2019-05-29T08:20:46.409Z,402.13
2019-05-29T08:25:51.863Z,461.83
2019-05-29T08:30:56.872Z,304.47
2019-05-29T08:36:01.671Z,290.37
2019-05-29T08:41:06.441Z,400.67
2019-05-29T08:46:11.190Z,310.47
2019-05-29T08:51:16.210Z,354.70
2019-05-29T08:56:21.289Z,524.87
2019-05-29T09:01:26.171Z,288.13
2019-05-29T09:06:31.191Z,325.38
2019-05-29T09:11:36.341Z,239.70
2019-05-29T09:16:41.231Z,371.37
2019-05-29T09:21:46.213Z,275.60
2019-05-29T09:26:51.313Z,254.97
2019-05-29T09:31:56.423Z,416.83
2019-05-29T09:37:01.376Z,225.47
2019-05-29T09:42:06.350Z,215.53
2019-05-29T09:47:11.191Z,267.73
2019-05-29T09:52:16.010Z,237.93
2019-05-29T09:57:20.970Z,284.30
2019-05-29T10:02:26.192Z,277.73
2019-05-29T10:07:31.465Z,314.72
2019-05-29T10:12:36.990Z,429.90
2019-05-29T10:17:42.131Z,293.00
2019-05-29T10:22:47.030Z,362.07
2019-05-29T10:27:52.056Z,334.10
2019-05-29T10:32:57.087Z,237.53
2019-05-29T10:38:01.911Z,242.07
2019-05-29T10:43:06.970Z,273.20
2019-05-29T10:48:11.810Z,170.73
2019-05-29T10:53:16.769Z,318.83
2019-05-29T10:58:21.616Z,251.87
2019-05-29T11:03:26.509Z,125.00
2019-05-29T11:08:31.469Z,235.67
2019-05-29T11:13:36.733Z,214.80
2019-05-29T11:18:41.685Z,116.17
2019-05-29T11:23:47.705Z,195.13
2019-05-29T11:28:52.902Z,303.40
2019-05-29T11:33:59.237Z,304.67
2019-05-29T11:39:08.004Z,391.13
2019-05-29T11:44:13.303Z,290.00
2019-05-29T11:49:18.315Z,174.00
2019-05-29T11:54:23.051Z,214.73
2019-05-29T11:59:27.956Z,215.07
2019-05-29T12:04:32.992Z,193.40
2019-05-29T12:09:37.964Z,250.15
2019-05-29T12:14:59.055Z,363.97
2019-05-29T12:19:49.382Z,220.60
2019-05-29T12:24:54.632Z,137.40
2019-05-29T12:30:00.807Z,330.83
2019-05-29T12:35:07.290Z,407.60
2019-05-29T12:40:12.550Z,209.03
2019-05-29T12:45:18.391Z,349.93
2019-05-29T12:50:23.470Z,223.57
2019-05-29T12:55:28.512Z,403.75
2019-05-29T13:00:33.571Z,319.85
2019-05-29T13:05:38.710Z,264.07
2019-05-29T13:10:43.750Z,363.97
2019-05-29T13:15:48.915Z,312.47
2019-05-29T13:20:54.779Z,289.53
2019-05-29T13:25:59.970Z,357.77
2019-05-29T13:31:06.703Z,337.97
2019-05-29T13:36:11.782Z,325.97
2019-05-29T13:41:17.204Z,233.53
2019-05-29T13:46:22.084Z,179.27
2019-05-29T13:51:27.131Z,60.67
2019-05-29T13:56:32.245Z,81.57
2019-05-29T14:01:37.191Z,107.52
2019-05-29T14:06:42.481Z,238.97
2019-05-29T14:11:47.565Z,217.83
2019-05-29T14:16:53.542Z,251.50
2019-05-29T14:21:58.749Z,114.60
2019-05-29T14:27:03.701Z,125.37
2019-05-29T14:32:09.300Z,79.00
2019-05-29T14:37:14.864Z,143.00
2019-05-29T14:42:20.430Z,70.60
2019-05-29T14:47:25.891Z,53.60
2019-05-29T14:52:31.370Z,20.05
2019-05-29T14:57:36.478Z,26.27
2019-05-29T15:02:41.690Z,97.07
2019-05-29T15:07:46.733Z,42.50
2019-05-29T15:12:51.817Z,17.47
2019-05-29T15:17:57.022Z,10.67
2019-05-29T15:23:02.439Z,31.53
2019-05-29T15:28:08.143Z,32.93
2019-05-29T15:33:14.876Z,17.40
2019-05-29T15:38:20.432Z,32.50
2019-05-29T15:43:25.644Z,23.70
2019-05-29T15:48:30.805Z,10.70
2019-05-29T15:53:36.162Z,40.65
2019-05-29T15:58:41.362Z,102.43
2019-05-29T16:03:46.530Z,46.60
2019-05-29T16:08:51.909Z,49.27
2019-05-29T16:13:57.490Z,47.63
2019-05-29T16:19:02.392Z,79.33
2019-05-29T16:24:07.930Z,46.90
2019-05-29T16:29:15.963Z,23.37
2019-05-29T16:34:21.427Z,102.87
2019-05-29T16:39:26.785Z,192.23
2019-05-29T16:44:32.269Z,131.30
2019-05-29T16:49:37.430Z,87.33
2019-05-29T16:54:42.611Z,74.57
2019-05-29T16:59:47.969Z,128.63
2019-05-29T17:04:53.310Z,277.00
2019-05-29T17:09:58.689Z,225.67
2019-05-29T17:15:03.791Z,161.53
2019-05-29T17:20:09.586Z,131.93
2019-05-29T17:25:14.945Z,42.80
2019-05-29T17:30:23.649Z,13.27
2019-05-29T17:35:29.209Z,29.77
2019-05-29T17:40:34.633Z,18.07
2019-05-29T17:45:39.631Z,8.00
2019-05-29T17:50:44.809Z,12.27
2019-05-29T17:55:49.736Z,7.47
2019-05-29T18:00:55.272Z,10.53
2019-05-29T18:06:00.414Z,3.97
2019-05-29T18:11:05.598Z,7.07
2019-05-29T18:16:10.592Z,12.68
2019-05-29T18:21:15.630Z,8.70
2019-05-29T18:26:20.437Z,12.83
2019-05-29T18:31:26.524Z,9.80
2019-05-29T18:36:31.854Z,8.50
2019-05-29T18:41:36.949Z,19.40
2019-05-29T18:46:42.071Z,10.27
2019-05-29T18:51:47.131Z,8.77
2019-05-29T18:57:13.805Z,10.00
2019-05-29T19:01:59.123Z,7.63
2019-05-29T19:07:04.441Z,8.40
2019-05-29T19:12:10.230Z,11.20
2019-05-29T19:17:16.482Z,11.77
2019-05-29T19:22:22.263Z,10.03
2019-05-29T19:27:36.516Z,10.18
2019-05-29T19:32:34.695Z,10.07
2019-05-29T19:37:39.733Z,15.83
2019-05-29T19:42:44.870Z,7.60
2019-05-29T19:47:49.933Z,10.33
2019-05-29T19:52:54.994Z,9.20
2019-05-29T19:58:00.203Z,17.97
2019-05-29T20:03:05.510Z,134.83
2019-05-29T20:08:10.878Z,236.67
2019-05-29T20:13:16.149Z,228.70
2019-05-29T20:18:21.109Z,369.07
2019-05-29T20:23:26.191Z,290.73
2019-05-29T20:28:32.107Z,603.50
2019-05-29T20:33:38.661Z,395.90
2019-05-29T20:38:43.750Z,430.57
2019-05-29T20:43:48.742Z,357.03
2019-05-29T20:48:53.690Z,262.73
2019-05-29T20:53:58.823Z,392.33
2019-05-29T20:59:04.226Z,422.87
2019-05-29T21:04:09.403Z,369.47
2019-05-29T21:09:14.625Z,401.77
2019-05-29T21:14:19.942Z,408.63
2019-05-29T21:19:25.254Z,330.37
2019-05-29T21:24:30.243Z,432.90
2019-05-29T21:29:35.289Z,101.97
2019-05-29T21:34:40.330Z,17.90
2019-05-29T21:39:46.652Z,12.13
2019-05-29T21:44:51.760Z,13.60
2019-05-29T21:49:56.749Z,16.33
2019-05-29T21:55:01.831Z,16.10
2019-05-29T22:00:14.286Z,13.00
2019-05-29T22:05:20.150Z,19.23
2019-05-29T22:10:26.274Z,12.80
2019-05-29T22:15:31.669Z,14.55
2019-05-29T22:20:36.769Z,23.02
2019-05-29T22:25:42.081Z,78.23
2019-05-29T22:30:47.282Z,46.47
2019-05-29T22:35:54.019Z,24.57
2019-05-29T22:40:59.699Z,79.97
2019-05-29T22:46:05.182Z,208.10
2019-05-29T22:51:09.991Z,289.17
2019-05-29T22:56:14.942Z,219.87
2019-05-29T23:01:20.102Z,204.53
2019-05-29T23:06:25.150Z,265.47
2019-05-29T23:11:30.130Z,294.60
2019-05-29T23:16:35.128Z,219.95
2019-05-29T23:21:40.090Z,353.57
2019-05-29T23:26:45.322Z,303.03
2019-05-29T23:31:50.342Z,353.97
2019-05-29T23:36:55.413Z,227.63
2019-05-29T23:42:01.474Z,204.47
2019-05-29T23:47:06.630Z,268.87
2019-05-29T23:52:11.550Z,245.10
2019-05-29T23:57:16.510Z,210.70
